createdAt,value
2023-03-29T00:01:01.010Z,10.20
2023-03-29T00:03:47.393Z,10.23
2023-03-29T00:06:33.154Z,10.23
2023-03-29T00:09:20.049Z,10.22
2023-03-29T00:12:06.163Z,10.21
2023-03-29T00:14:51.786Z,10.19
2023-03-29T00:17:37.461Z,10.19
2023-03-29T00:20:22.915Z,10.15
2023-03-29T00:23:08.347Z,10.26
2023-03-29T00:25:54.165Z,10.29
2023-03-29T00:28:39.931Z,10.33
2023-03-29T00:31:26.518Z,10.34
2023-03-29T00:34:11.910Z,10.34
2023-03-29T00:36:58.477Z,10.37
2023-03-29T00:39:44.737Z,10.37
2023-03-29T00:42:31.040Z,10.44
2023-03-29T00:45:23.466Z,10.48
2023-03-29T00:48:12.426Z,10.52
2023-03-29T00:51:03.935Z,10.56
2023-03-29T00:53:53.851Z,10.57
2023-03-29T00:56:40.813Z,10.55
2023-03-29T00:59:32.910Z,10.57
2023-03-29T01:02:26.176Z,10.56
2023-03-29T01:05:22.668Z,10.54
2023-03-29T01:08:11.818Z,10.48
2023-03-29T01:11:18.033Z,10.42
2023-03-29T01:14:08.318Z,10.38
2023-03-29T01:16:54.451Z,10.35
2023-03-29T01:19:53.877Z,10.29
2023-03-29T01:22:57.882Z,10.19
2023-03-29T01:25:56.081Z,10.12
2023-03-29T01:28:56.053Z,10.08
2023-03-29T01:31:48.112Z,10.16
2023-03-29T01:35:12.207Z,10.21
2023-03-29T01:38:25.631Z,10.26
2023-03-29T01:41:12.302Z,10.27
2023-03-29T01:44:10.135Z,10.26
2023-03-29T01:47:08.782Z,10.24
2023-03-29T01:50:06.746Z,10.22
2023-03-29T01:53:09.402Z,10.28
2023-03-29T01:55:59.200Z,10.23
2023-03-29T01:58:49.037Z,10.14
2023-03-29T02:01:39.035Z,10.06
2023-03-29T02:04:30.019Z,10.01
2023-03-29T02:07:18.263Z,9.95
2023-03-29T02:10:07.295Z,9.96
2023-03-29T02:12:52.984Z,9.94
2023-03-29T02:15:38.728Z,9.95
2023-03-29T02:18:24.808Z,10.03
2023-03-29T02:21:32.350Z,10.14
2023-03-29T02:24:22.048Z,10.20
2023-03-29T02:27:07.735Z,10.27
2023-03-29T02:29:53.565Z,10.32
2023-03-29T02:32:52.529Z,10.35
2023-03-29T02:35:45.815Z,10.41
2023-03-29T02:38:32.839Z,10.48
2023-03-29T02:41:18.740Z,10.53
2023-03-29T02:44:08.269Z,10.53
2023-03-29T02:46:58.724Z,10.52
2023-03-29T02:49:44.273Z,10.46
2023-03-29T02:52:35.900Z,10.38
2023-03-29T02:55:23.853Z,10.30
2023-03-29T02:58:09.554Z,10.22
2023-03-29T03:01:01.559Z,10.11
2023-03-29T03:03:48.119Z,10.01
2023-03-29T03:06:33.883Z,9.91
2023-03-29T03:09:19.804Z,9.86
2023-03-29T03:12:07.646Z,9.83
2023-03-29T03:14:53.267Z,9.78
2023-03-29T03:17:40.238Z,9.71
2023-03-29T03:20:26.658Z,9.65
2023-03-29T03:23:13.735Z,9.62
2023-03-29T03:25:59.706Z,9.54
2023-03-29T03:28:48.440Z,9.50
2023-03-29T03:31:55.142Z,9.41
2023-03-29T03:34:59.925Z,9.32
2023-03-29T03:37:45.624Z,9.24
2023-03-29T03:40:32.347Z,9.19
2023-03-29T03:43:17.697Z,9.18
2023-03-29T03:46:05.793Z,9.20
2023-03-29T03:48:51.568Z,9.29
2023-03-29T03:51:53.165Z,9.42
2023-03-29T03:54:39.033Z,9.49
2023-03-29T03:57:56.381Z,9.56
2023-03-29T04:00:41.937Z,9.62
2023-03-29T04:03:56.521Z,9.66
2023-03-29T04:06:44.219Z,9.67
2023-03-29T04:09:48.932Z,9.70
2023-03-29T04:13:02.465Z,9.72
2023-03-29T04:15:54.344Z,9.74
2023-03-29T04:18:40.152Z,9.77
2023-03-29T04:21:26.309Z,9.76
2023-03-29T04:24:12.709Z,9.73
2023-03-29T04:27:01.396Z,9.70
2023-03-29T04:29:47.003Z,9.68
2023-03-29T04:32:43.377Z,9.66
2023-03-29T04:35:30.040Z,9.64
2023-03-29T04:38:16.861Z,9.63
2023-03-29T04:41:08.916Z,9.64
2023-03-29T04:44:06.963Z,9.65
2023-03-29T04:46:53.090Z,9.64
2023-03-29T04:49:57.411Z,9.64
2023-03-29T04:52:56.634Z,9.64
2023-03-29T04:55:42.334Z,9.65
2023-03-29T04:58:32.799Z,9.67
2023-03-29T05:01:19.728Z,9.68
2023-03-29T05:04:14.286Z,9.69
2023-03-29T05:07:11.826Z,9.70
2023-03-29T05:09:57.380Z,9.73
2023-03-29T05:12:42.854Z,9.72
2023-03-29T05:15:28.626Z,9.72
2023-03-29T05:18:14.508Z,9.71
2023-03-29T05:21:00.197Z,9.69
2023-03-29T05:23:46.530Z,9.66
2023-03-29T05:26:31.832Z,9.64
2023-03-29T05:29:17.237Z,9.62
2023-03-29T05:32:07.288Z,9.55
2023-03-29T05:34:53.391Z,9.52
2023-03-29T05:37:39.895Z,9.44
2023-03-29T05:40:26.341Z,9.43
2023-03-29T05:43:30.998Z,9.39
2023-03-29T05:46:17.429Z,9.38
2023-03-29T05:49:09.253Z,9.36
2023-03-29T05:52:21.158Z,9.33
2023-03-29T05:55:07.977Z,9.31
2023-03-29T05:57:53.830Z,9.31
2023-03-29T06:00:43.907Z,9.32
2023-03-29T06:03:47.538Z,9.34
2023-03-29T06:06:34.057Z,9.34
2023-03-29T06:09:20.058Z,9.36
2023-03-29T06:12:21.084Z,9.38
2023-03-29T06:15:17.856Z,9.45
2023-03-29T06:18:07.081Z,9.51
2023-03-29T06:20:53.930Z,9.58
2023-03-29T06:23:39.541Z,9.64
2023-03-29T06:26:27.794Z,9.71
2023-03-29T06:29:13.389Z,9.76
2023-03-29T06:32:00.378Z,9.83
2023-03-29T06:35:05.105Z,9.88
2023-03-29T06:37:57.173Z,9.94
2023-03-29T06:40:48.427Z,10.01
2023-03-29T06:43:35.319Z,10.04
2023-03-29T06:46:25.871Z,10.06
2023-03-29T06:49:18.532Z,10.09
2023-03-29T06:52:17.350Z,10.09
2023-03-29T06:55:07.672Z,10.06
2023-03-29T06:57:55.026Z,10.07
2023-03-29T07:00:42.163Z,10.06
2023-03-29T07:03:41.312Z,10.04
2023-03-29T07:06:26.810Z,10.02
2023-03-29T07:09:12.941Z,9.99
2023-03-29T07:12:18.832Z,9.95
2023-03-29T07:15:05.032Z,9.94
2023-03-29T07:18:18.406Z,9.94
2023-03-29T07:21:04.726Z,9.95
2023-03-29T07:23:52.282Z,9.99
2023-03-29T07:26:38.150Z,10.02
2023-03-29T07:29:24.655Z,10.01
2023-03-29T07:32:10.511Z,10.05
2023-03-29T07:35:04.496Z,10.07
2023-03-29T07:37:55.010Z,10.11
2023-03-29T07:40:40.809Z,10.19
2023-03-29T07:43:44.677Z,10.29
2023-03-29T07:46:32.202Z,10.35
2023-03-29T07:49:18.429Z,10.38
2023-03-29T07:52:05.385Z,10.39
2023-03-29T07:54:51.159Z,10.42
2023-03-29T07:57:57.566Z,10.45
2023-03-29T08:00:43.813Z,10.49
2023-03-29T08:03:48.248Z,10.48
2023-03-29T08:06:35.256Z,10.48
2023-03-29T08:09:21.365Z,10.46
2023-03-29T08:12:07.644Z,10.47
2023-03-29T08:14:55.558Z,10.46
2023-03-29T08:17:45.853Z,10.45
2023-03-29T08:20:32.785Z,10.47
2023-03-29T08:23:21.283Z,10.49
2023-03-29T08:26:22.848Z,10.56
2023-03-29T08:29:09.467Z,10.62
2023-03-29T08:31:56.457Z,10.62
2023-03-29T08:34:41.772Z,10.57
2023-03-29T08:37:37.502Z,10.59
2023-03-29T08:40:28.166Z,10.56
2023-03-29T08:43:58.073Z,10.58
2023-03-29T08:47:42.464Z,10.61
2023-03-29T08:50:48.145Z,10.64
2023-03-29T08:53:50.055Z,10.63
2023-03-29T08:56:52.073Z,10.68
2023-03-29T08:59:49.594Z,10.72
2023-03-29T09:02:36.258Z,10.74
2023-03-29T09:05:31.246Z,10.70
2023-03-29T09:08:37.330Z,10.68
2023-03-29T09:11:39.032Z,10.70
2023-03-29T09:15:15.534Z,10.71
2023-03-29T09:18:30.355Z,10.78
2023-03-29T09:21:25.289Z,10.73
2023-03-29T09:24:56.524Z,10.74
2023-03-29T09:28:03.791Z,10.76
2023-03-29T09:31:13.180Z,10.81
2023-03-29T09:34:04.964Z,10.91
2023-03-29T09:37:21.573Z,10.97
2023-03-29T09:40:22.768Z,11.03
2023-03-29T09:43:42.150Z,11.04
2023-03-29T09:46:42.605Z,11.00
2023-03-29T09:49:36.471Z,10.95
2023-03-29T09:52:22.128Z,10.87
2023-03-29T09:55:21.280Z,10.81
2023-03-29T09:58:31.798Z,10.72
2023-03-29T10:01:19.094Z,10.64
2023-03-29T10:04:10.008Z,10.64
2023-03-29T10:06:59.993Z,10.59
2023-03-29T10:09:47.030Z,10.58
2023-03-29T10:12:36.710Z,10.61
2023-03-29T10:15:29.701Z,10.64
2023-03-29T10:18:16.893Z,10.64
2023-03-29T10:21:05.512Z,10.67
2023-03-29T10:23:59.408Z,10.68
2023-03-29T10:26:44.953Z,10.66
2023-03-29T10:29:41.204Z,10.71
2023-03-29T10:32:30.550Z,10.76
2023-03-29T10:35:28.252Z,10.81
2023-03-29T10:38:16.570Z,10.81
2023-03-29T10:41:10.378Z,10.78
2023-03-29T10:43:55.836Z,10.80
2023-03-29T10:46:44.156Z,10.78
2023-03-29T10:49:29.622Z,10.83
2023-03-29T10:52:16.551Z,10.84
2023-03-29T10:55:02.707Z,10.83
2023-03-29T10:58:27.517Z,10.77
2023-03-29T11:01:21.780Z,10.71
2023-03-29T11:04:43.921Z,10.72
2023-03-29T11:07:38.524Z,10.74
2023-03-29T11:10:52.757Z,10.76
2023-03-29T11:14:28.124Z,10.81
2023-03-29T11:17:28.721Z,10.87
2023-03-29T11:20:27.106Z,10.89
2023-03-29T11:23:37.595Z,10.92
2023-03-29T11:26:31.881Z,10.97
2023-03-29T11:29:27.378Z,11.01
2023-03-29T11:32:25.772Z,11.08
2023-03-29T11:35:29.842Z,11.19
2023-03-29T11:38:42.749Z,11.30
2023-03-29T11:41:35.043Z,11.39
2023-03-29T11:44:34.248Z,11.50
2023-03-29T11:47:28.049Z,11.67
2023-03-29T11:50:20.012Z,11.85
2023-03-29T11:53:13.345Z,12.05
2023-03-29T11:56:07.351Z,12.34
2023-03-29T11:58:59.573Z,12.80
2023-03-29T12:02:00.019Z,13.24
2023-03-29T12:04:52.089Z,13.63
2023-03-29T12:07:45.685Z,13.83
2023-03-29T12:10:36.508Z,14.02
2023-03-29T12:13:29.217Z,14.25
2023-03-29T12:16:52.774Z,14.47
2023-03-29T12:19:46.574Z,15.00
2023-03-29T12:22:33.765Z,15.50
2023-03-29T12:25:25.779Z,15.78
2023-03-29T12:28:40.349Z,15.94
2023-03-29T12:32:04.277Z,16.10
2023-03-29T12:35:18.395Z,15.93
2023-03-29T12:38:27.636Z,15.68
2023-03-29T12:41:37.948Z,15.54
2023-03-29T12:44:46.917Z,15.51
2023-03-29T12:47:45.573Z,15.67
2023-03-29T12:50:37.599Z,15.89
2023-03-29T12:53:41.069Z,16.35
2023-03-29T12:56:39.942Z,16.92
2023-03-29T12:59:38.983Z,17.00
2023-03-29T13:02:36.281Z,17.08
2023-03-29T13:05:31.402Z,17.38
2023-03-29T13:08:26.312Z,17.63
2023-03-29T13:11:25.388Z,17.71
2023-03-29T13:14:16.940Z,17.42
2023-03-29T13:17:18.432Z,17.31
2023-03-29T13:20:16.777Z,17.33
2023-03-29T13:23:27.230Z,17.53
2023-03-29T13:26:12.703Z,17.68
2023-03-29T13:29:20.060Z,17.80
2023-03-29T13:32:30.517Z,17.63
2023-03-29T13:35:19.015Z,17.17
2023-03-29T13:38:22.438Z,17.16
2023-03-29T13:41:27.819Z,17.16
2023-03-29T13:44:22.465Z,17.13
2023-03-29T13:47:29.381Z,16.98
2023-03-29T13:50:21.172Z,17.01
2023-03-29T13:53:26.688Z,17.05
2023-03-29T13:56:20.366Z,17.20
2023-03-29T13:59:30.228Z,17.52
2023-03-29T14:02:40.622Z,17.80
2023-03-29T14:05:31.565Z,17.54
2023-03-29T14:08:23.789Z,17.10
2023-03-29T14:11:15.550Z,17.23
2023-03-29T14:14:05.138Z,17.39
2023-03-29T14:16:51.369Z,17.44
2023-03-29T14:19:38.065Z,17.12
2023-03-29T14:22:23.601Z,17.13
2023-03-29T14:25:17.204Z,17.09
2023-03-29T14:28:02.414Z,16.80
2023-03-29T14:30:48.126Z,16.69
2023-03-29T14:33:34.772Z,16.82
2023-03-29T14:36:21.335Z,17.02
2023-03-29T14:39:11.597Z,17.10
2023-03-29T14:41:59.688Z,17.06
2023-03-29T14:44:45.301Z,16.96
2023-03-29T14:47:33.090Z,17.09
2023-03-29T14:50:23.890Z,17.52
2023-03-29T14:53:18.356Z,17.74
2023-03-29T14:56:05.406Z,17.64
2023-03-29T14:58:54.865Z,17.58
2023-03-29T15:01:44.542Z,17.61
2023-03-29T15:04:35.151Z,17.40
2023-03-29T15:07:23.752Z,17.33
2023-03-29T15:10:18.734Z,17.71
2023-03-29T15:13:06.794Z,17.22
2023-03-29T15:15:56.412Z,17.33
2023-03-29T15:18:44.174Z,17.48
2023-03-29T15:21:34.200Z,17.75
2023-03-29T15:24:24.181Z,17.88
2023-03-29T15:27:15.149Z,17.60
2023-03-29T15:30:02.890Z,17.12
2023-03-29T15:32:48.333Z,16.78
2023-03-29T15:35:33.672Z,16.50
2023-03-29T15:38:23.388Z,16.23
2023-03-29T15:41:16.196Z,16.07
2023-03-29T15:44:01.780Z,15.87
2023-03-29T15:46:47.335Z,15.73
2023-03-29T15:49:32.991Z,15.68
2023-03-29T15:52:18.433Z,15.60
2023-03-29T15:55:04.877Z,15.55
2023-03-29T15:57:54.360Z,15.49
2023-03-29T16:00:43.600Z,15.42
2023-03-29T16:03:28.949Z,15.35
2023-03-29T16:06:14.354Z,15.27
2023-03-29T16:08:59.834Z,15.16
2023-03-29T16:11:46.486Z,15.01
2023-03-29T16:14:33.593Z,14.91
2023-03-29T16:17:19.195Z,14.89
2023-03-29T16:20:05.586Z,14.96
2023-03-29T16:22:51.422Z,14.96
2023-03-29T16:25:39.965Z,15.03
2023-03-29T16:28:25.614Z,15.23
2023-03-29T16:31:13.622Z,15.51
2023-03-29T16:33:59.101Z,15.67
2023-03-29T16:36:45.413Z,15.71
2023-03-29T16:39:30.731Z,15.85
2023-03-29T16:42:16.141Z,16.08
2023-03-29T16:45:02.317Z,16.24
2023-03-29T16:47:48.074Z,16.28
2023-03-29T16:50:33.581Z,16.36
2023-03-29T16:53:20.048Z,16.43
2023-03-29T16:56:06.270Z,16.14
2023-03-29T16:58:51.892Z,15.85
2023-03-29T17:01:37.444Z,15.40
2023-03-29T17:04:23.289Z,15.10
2023-03-29T17:07:08.968Z,14.91
2023-03-29T17:09:54.264Z,14.76
2023-03-29T17:12:40.112Z,14.65
2023-03-29T17:15:25.492Z,14.65
2023-03-29T17:18:10.924Z,14.83
2023-03-29T17:20:58.478Z,14.97
2023-03-29T17:23:44.347Z,15.10
2023-03-29T17:26:29.700Z,15.15
2023-03-29T17:29:15.012Z,15.24
2023-03-29T17:32:00.436Z,15.13
2023-03-29T17:34:46.426Z,14.93
2023-03-29T17:37:32.164Z,14.87
2023-03-29T17:40:18.587Z,14.81
2023-03-29T17:43:04.366Z,14.70
2023-03-29T17:45:53.239Z,14.50
2023-03-29T17:48:39.254Z,14.31
2023-03-29T17:51:25.379Z,14.17
2023-03-29T17:54:10.802Z,14.02
2023-03-29T17:56:56.125Z,13.86
2023-03-29T17:59:41.523Z,13.75
2023-03-29T18:02:26.814Z,13.66
2023-03-29T18:05:12.612Z,13.58
2023-03-29T18:07:58.181Z,13.55
2023-03-29T18:10:43.541Z,13.49
2023-03-29T18:13:28.920Z,13.41
2023-03-29T18:16:14.479Z,13.35
2023-03-29T18:19:00.138Z,13.30
2023-03-29T18:21:45.304Z,13.15
2023-03-29T18:24:30.820Z,13.12
2023-03-29T18:27:16.960Z,13.05
2023-03-29T18:30:02.513Z,12.97
2023-03-29T18:32:48.245Z,12.90
2023-03-29T18:35:33.624Z,12.80
2023-03-29T18:38:21.382Z,12.71
2023-03-29T18:41:08.752Z,12.59
2023-03-29T18:43:57.321Z,12.56
2023-03-29T18:46:42.918Z,12.46
2023-03-29T18:49:28.412Z,12.36
2023-03-29T18:52:14.422Z,12.27
2023-03-29T18:54:59.938Z,12.24
2023-03-29T18:57:45.621Z,12.15
2023-03-29T19:00:31.008Z,12.07
2023-03-29T19:03:16.766Z,12.01
2023-03-29T19:06:02.636Z,11.96
2023-03-29T19:08:48.288Z,11.91
2023-03-29T19:11:36.017Z,11.86
2023-03-29T19:14:24.219Z,11.80
2023-03-29T19:17:09.437Z,11.68
2023-03-29T19:19:56.433Z,11.67
2023-03-29T19:22:42.156Z,11.63
2023-03-29T19:25:30.658Z,11.54
2023-03-29T19:28:16.416Z,11.50
2023-03-29T19:31:03.022Z,11.41
2023-03-29T19:33:48.632Z,11.35
2023-03-29T19:36:34.225Z,11.36
2023-03-29T19:39:20.814Z,11.31
2023-03-29T19:42:06.190Z,11.27
2023-03-29T19:44:51.669Z,11.21
2023-03-29T19:47:37.246Z,11.11
2023-03-29T19:50:24.232Z,11.06
2023-03-29T19:53:10.917Z,11.03
2023-03-29T19:55:56.672Z,11.07
2023-03-29T19:58:42.409Z,11.02
2023-03-29T20:01:28.188Z,11.03
2023-03-29T20:04:13.970Z,11.02
2023-03-29T20:06:59.680Z,11.01
2023-03-29T20:09:45.458Z,10.96
2023-03-29T20:12:31.062Z,10.92
2023-03-29T20:15:16.442Z,10.80
2023-03-29T20:18:01.783Z,10.72
2023-03-29T20:20:49.817Z,10.64
2023-03-29T20:23:35.677Z,10.54
2023-03-29T20:26:21.622Z,10.43
2023-03-29T20:29:07.364Z,10.35
2023-03-29T20:31:52.624Z,10.33
2023-03-29T20:34:38.216Z,10.39
2023-03-29T20:37:25.916Z,10.39
2023-03-29T20:40:11.677Z,10.33
2023-03-29T20:42:56.954Z,10.27
2023-03-29T20:45:52.089Z,10.22
2023-03-29T20:48:38.428Z,10.18
2023-03-29T20:51:33.367Z,10.15
2023-03-29T20:54:18.951Z,10.11
2023-03-29T20:57:09.797Z,10.10
2023-03-29T20:59:55.203Z,10.16
2023-03-29T21:02:40.623Z,10.21
2023-03-29T21:05:27.346Z,10.23
2023-03-29T21:08:12.690Z,10.23
2023-03-29T21:10:57.982Z,10.20
2023-03-29T21:13:43.997Z,10.17
2023-03-29T21:16:29.438Z,10.17
2023-03-29T21:19:16.732Z,10.11
2023-03-29T21:22:02.704Z,10.09
2023-03-29T21:24:48.203Z,10.11
2023-03-29T21:27:34.281Z,10.10
2023-03-29T21:30:20.053Z,10.08
2023-03-29T21:33:05.748Z,10.11
2023-03-29T21:35:51.518Z,10.12
2023-03-29T21:38:37.194Z,10.13
2023-03-29T21:41:22.590Z,10.17
2023-03-29T21:44:08.007Z,10.19
2023-03-29T21:46:53.832Z,10.14
2023-03-29T21:49:39.726Z,10.12
2023-03-29T21:52:25.094Z,10.04
2023-03-29T21:55:10.800Z,10.00
2023-03-29T21:57:56.260Z,9.97
2023-03-29T22:00:41.638Z,9.95
2023-03-29T22:03:27.273Z,9.95
2023-03-29T22:06:14.072Z,9.98
2023-03-29T22:09:00.855Z,10.02
2023-03-29T22:11:46.717Z,10.07
2023-03-29T22:14:36.414Z,10.12
2023-03-29T22:17:23.045Z,10.17
2023-03-29T22:20:13.474Z,10.21
2023-03-29T22:22:58.826Z,10.29
2023-03-29T22:25:44.051Z,10.35
2023-03-29T22:28:29.279Z,10.39
2023-03-29T22:31:17.273Z,10.43
2023-03-29T22:34:02.841Z,10.45
2023-03-29T22:36:48.387Z,10.46
2023-03-29T22:39:37.468Z,10.47
2023-03-29T22:42:22.815Z,10.51
2023-03-29T22:45:09.065Z,10.53
2023-03-29T22:47:55.038Z,10.55
2023-03-29T22:50:43.021Z,10.55
2023-03-29T22:53:29.018Z,10.59
2023-03-29T22:56:15.959Z,10.63
2023-03-29T22:59:01.300Z,10.68
2023-03-29T23:01:48.316Z,10.69
2023-03-29T23:04:33.856Z,10.69
2023-03-29T23:07:19.631Z,10.67
2023-03-29T23:10:07.619Z,10.66
2023-03-29T23:12:53.735Z,10.62
2023-03-29T23:15:43.503Z,10.54
2023-03-29T23:18:30.420Z,10.49
2023-03-29T23:21:16.692Z,10.43
2023-03-29T23:24:01.958Z,10.39
2023-03-29T23:26:49.078Z,10.30
2023-03-29T23:29:37.866Z,10.23
2023-03-29T23:32:23.155Z,10.16
2023-03-29T23:35:08.961Z,10.06
2023-03-29T23:37:54.703Z,10.00
2023-03-29T23:40:39.941Z,9.91
2023-03-29T23:43:33.023Z,9.87
2023-03-29T23:46:19.045Z,9.82
2023-03-29T23:49:04.815Z,9.75
2023-03-29T23:51:50.640Z,9.71
2023-03-29T23:54:36.580Z,9.68
2023-03-29T23:57:21.890Z,9.66
